sensor_id;sensor_type;location;lat;lon;timestamp;temperature;humidity
46766;DHT22;32527;51.986;5.842;2022-11-09T00:17:24;13.90;99.90
46766;DHT22;32527;51.986;5.842;2022-11-09T00:19:50;13.10;99.90
46766;DHT22;32527;51.986;5.842;2022-11-09T00:22:15;13.40;99.90
46766;DHT22;32527;51.986;5.842;2022-11-09T00:41:43;12.90;99.90
46766;DHT22;32527;51.986;5.842;2022-11-09T00:44:08;13.60;99.90
46766;DHT22;32527;51.986;5.842;2022-11-09T00:46:34;13.10;99.90
46766;DHT22;32527;51.986;5.842;2022-11-09T00:49:00;13.20;99.90
46766;DHT22;32527;51.986;5.842;2022-11-09T00:51:26;13.00;99.90
46766;DHT22;32527;51.986;5.842;2022-11-09T00:56:20;13.50;99.90
46766;DHT22;32527;51.986;5.842;2022-11-09T00:58:46;13.40;99.90
46766;DHT22;32527;51.986;5.842;2022-11-09T01:01:16;13.10;99.90
46766;DHT22;32527;51.986;5.842;2022-11-09T01:03:43;13.00;99.90
46766;DHT22;32527;51.986;5.842;2022-11-09T01:06:31;13.40;99.90
46766;DHT22;32527;51.986;5.842;2022-11-09T01:11:23;16.00;99.90
46766;DHT22;32527;51.986;5.842;2022-11-09T01:16:20;13.10;99.90
46766;DHT22;32527;51.986;5.842;2022-11-09T01:18:46;13.10;99.90
46766;DHT22;32527;51.986;5.842;2022-11-09T01:21:13;13.30;99.90
46766;DHT22;32527;51.986;5.842;2022-11-09T01:23:40;13.20;99.90
46766;DHT22;32527;51.986;5.842;2022-11-09T01:26:10;13.30;99.90
46766;DHT22;32527;51.986;5.842;2022-11-09T01:28:36;12.70;99.90
46766;DHT22;32527;51.986;5.842;2022-11-09T01:31:05;12.80;99.90
46766;DHT22;32527;51.986;5.842;2022-11-09T01:36:08;13.00;99.90
46766;DHT22;32527;51.986;5.842;2022-11-09T01:38:35;12.70;99.90
46766;DHT22;32527;51.986;5.842;2022-11-09T01:41:02;12.90;99.90
46766;DHT22;32527;51.986;5.842;2022-11-09T01:43:28;12.30;99.90
46766;DHT22;32527;51.986;5.842;2022-11-09T01:48:59;12.40;99.90
46766;DHT22;32527;51.986;5.842;2022-11-09T01:51:32;12.40;99.90
46766;DHT22;32527;51.986;5.842;2022-11-09T01:54:13;12.30;99.90
46766;DHT22;32527;51.986;5.842;2022-11-09T01:56:40;12.30;99.90
46766;DHT22;32527;51.986;5.842;2022-11-09T01:59:14;12.30;99.90
46766;DHT22;32527;51.986;5.842;2022-11-09T02:01:43;12.10;99.90
46766;DHT22;32527;51.986;5.842;2022-11-09T02:04:16;12.40;99.90
46766;DHT22;32527;51.986;5.842;2022-11-09T02:06:44;12.10;99.90
46766;DHT22;32527;51.986;5.842;2022-11-09T02:09:24;12.30;99.90
46766;DHT22;32527;51.986;5.842;2022-11-09T02:11:52;12.10;99.90
46766;DHT22;32527;51.986;5.842;2022-11-09T02:14:19;12.00;99.90
46766;DHT22;32527;51.986;5.842;2022-11-09T02:16:45;12.50;99.90
46766;DHT22;32527;51.986;5.842;2022-11-09T02:24:05;12.30;99.90
46766;DHT22;32527;51.986;5.842;2022-11-09T02:26:44;12.70;99.90
46766;DHT22;32527;51.986;5.842;2022-11-09T02:29:14;12.60;99.90
46766;DHT22;32527;51.986;5.842;2022-11-09T02:31:45;12.70;99.90
46766;DHT22;32527;51.986;5.842;2022-11-09T02:34:18;13.10;99.90
46766;DHT22;32527;51.986;5.842;2022-11-09T02:36:44;13.00;99.90
46766;DHT22;32527;51.986;5.842;2022-11-09T02:39:17;13.20;99.90
46766;DHT22;32527;51.986;5.842;2022-11-09T02:42:02;12.80;99.90
46766;DHT22;32527;51.986;5.842;2022-11-09T02:44:39;12.50;99.90
46766;DHT22;32527;51.986;5.842;2022-11-09T02:47:07;12.70;99.90
46766;DHT22;32527;51.986;5.842;2022-11-09T02:49:33;12.80;99.90
46766;DHT22;32527;51.986;5.842;2022-11-09T02:56:52;13.10;99.90
46766;DHT22;32527;51.986;5.842;2022-11-09T02:59:18;12.60;99.90
46766;DHT22;32527;51.986;5.842;2022-11-09T03:06:36;12.00;99.90
46766;DHT22;32527;51.986;5.842;2022-11-09T03:11:39;12.80;99.90
46766;DHT22;32527;51.986;5.842;2022-11-09T03:14:06;12.20;99.90
46766;DHT22;32527;51.986;5.842;2022-11-09T03:16:36;12.40;99.90
46766;DHT22;32527;51.986;5.842;2022-11-09T03:19:05;12.20;99.90
46766;DHT22;32527;51.986;5.842;2022-11-09T03:21:32;12.30;99.90
46766;DHT22;32527;51.986;5.842;2022-11-09T03:23:58;11.80;99.90
46766;DHT22;32527;51.986;5.842;2022-11-09T03:26:24;12.20;99.90
46766;DHT22;32527;51.986;5.842;2022-11-09T03:31:17;12.20;99.90
46766;DHT22;32527;51.986;5.842;2022-11-09T03:33:44;12.70;99.90
46766;DHT22;32527;51.986;5.842;2022-11-09T03:36:10;12.30;99.90
46766;DHT22;32527;51.986;5.842;2022-11-09T03:38:37;12.30;99.90
46766;DHT22;32527;51.986;5.842;2022-11-09T03:43:30;12.20;99.90
46766;DHT22;32527;51.986;5.842;2022-11-09T03:58:08;12.20;99.90
46766;DHT22;32527;51.986;5.842;2022-11-09T04:07:54;11.90;99.90
46766;DHT22;32527;51.986;5.842;2022-11-09T04:10:22;12.00;99.90
46766;DHT22;32527;51.986;5.842;2022-11-09T04:15:14;11.50;99.90
46766;DHT22;32527;51.986;5.842;2022-11-09T04:17:40;12.30;99.90
46766;DHT22;32527;51.986;5.842;2022-11-09T04:20:07;11.90;99.90
46766;DHT22;32527;51.986;5.842;2022-11-09T04:22:33;11.80;99.90
46766;DHT22;32527;51.986;5.842;2022-11-09T04:24:59;12.00;99.90
46766;DHT22;32527;51.986;5.842;2022-11-09T04:32:17;11.40;99.90
46766;DHT22;32527;51.986;5.842;2022-11-09T04:34:43;11.40;99.90
46766;DHT22;32527;51.986;5.842;2022-11-09T04:37:09;11.30;99.90
46766;DHT22;32527;51.986;5.842;2022-11-09T04:39:35;11.70;99.90
46766;DHT22;32527;51.986;5.842;2022-11-09T04:42:01;11.30;99.90
46766;DHT22;32527;51.986;5.842;2022-11-09T04:54:12;11.50;99.90
46766;DHT22;32527;51.986;5.842;2022-11-09T04:56:37;11.30;99.90
46766;DHT22;32527;51.986;5.842;2022-11-09T05:23:34;11.50;99.90
46766;DHT22;32527;51.986;5.842;2022-11-09T05:26:18;11.40;99.90
46766;DHT22;32527;51.986;5.842;2022-11-09T05:28:44;11.10;99.90
46766;DHT22;32527;51.986;5.842;2022-11-09T05:43:20;11.00;99.90
46766;DHT22;32527;51.986;5.842;2022-11-09T05:45:46;11.10;99.90
46766;DHT22;32527;51.986;5.842;2022-11-09T05:48:14;11.60;99.90
46766;DHT22;32527;51.986;5.842;2022-11-09T06:03:05;10.80;99.90
46766;DHT22;32527;51.986;5.842;2022-11-09T06:05:32;10.80;99.90
46766;DHT22;32527;51.986;5.842;2022-11-09T06:08:10;11.30;99.90
46766;DHT22;32527;51.986;5.842;2022-11-09T06:15:30;11.00;99.90
46766;DHT22;32527;51.986;5.842;2022-11-09T06:17:56;10.60;99.90
46766;DHT22;32527;51.986;5.842;2022-11-09T06:20:23;10.60;99.90
46766;DHT22;32527;51.986;5.842;2022-11-09T06:22:56;10.40;99.90
46766;DHT22;32527;51.986;5.842;2022-11-09T06:27:49;10.30;99.90
46766;DHT22;32527;51.986;5.842;2022-11-09T06:30:15;10.80;99.90
46766;DHT22;32527;51.986;5.842;2022-11-09T06:32:41;10.20;99.90
46766;DHT22;32527;51.986;5.842;2022-11-09T07:36:03;11.00;99.90
46766;DHT22;32527;51.986;5.842;2022-11-09T07:40:59;11.40;99.90
46766;DHT22;32527;51.986;5.842;2022-11-09T07:50:44;11.30;99.90
46766;DHT22;32527;51.986;5.842;2022-11-09T07:53:12;11.40;99.90
46766;DHT22;32527;51.986;5.842;2022-11-09T07:58:07;11.50;99.90
46766;DHT22;32527;51.986;5.842;2022-11-09T08:00:34;11.50;99.90
46766;DHT22;32527;51.986;5.842;2022-11-09T08:07:56;11.70;99.90
46766;DHT22;32527;51.986;5.842;2022-11-09T08:13:14;11.40;99.90
46766;DHT22;32527;51.986;5.842;2022-11-09T08:15:40;11.80;99.90
46766;DHT22;32527;51.986;5.842;2022-11-09T08:18:10;11.90;99.90
46766;DHT22;32527;51.986;5.842;2022-11-09T08:23:02;11.90;99.90
46766;DHT22;32527;51.986;5.842;2022-11-09T08:27:57;12.40;99.90
46766;DHT22;32527;51.986;5.842;2022-11-09T08:30:23;11.70;99.90
46766;DHT22;32527;51.986;5.842;2022-11-09T08:35:18;12.10;99.90
46766;DHT22;32527;51.986;5.842;2022-11-09T08:37:45;12.20;99.90
46766;DHT22;32527;51.986;5.842;2022-11-09T08:45:04;12.40;99.90
46766;DHT22;32527;51.986;5.842;2022-11-09T08:57:17;12.60;99.90
46766;DHT22;32527;51.986;5.842;2022-11-09T09:02:10;12.90;99.90
46766;DHT22;32527;51.986;5.842;2022-11-09T09:14:20;13.30;99.90
46766;DHT22;32527;51.986;5.842;2022-11-09T09:19:12;13.30;99.90
46766;DHT22;32527;51.986;5.842;2022-11-09T09:36:20;13.90;99.90
46766;DHT22;32527;51.986;5.842;2022-11-09T09:38:49;13.40;99.90
46766;DHT22;32527;51.986;5.842;2022-11-09T09:41:23;13.20;99.90
46766;DHT22;32527;51.986;5.842;2022-11-09T09:43:55;13.50;99.90
46766;DHT22;32527;51.986;5.842;2022-11-09T09:49:27;13.80;99.90
46766;DHT22;32527;51.986;5.842;2022-11-09T09:51:58;13.50;99.90
46766;DHT22;32527;51.986;5.842;2022-11-09T09:54:40;13.10;99.90
46766;DHT22;32527;51.986;5.842;2022-11-09T09:57:15;13.60;99.90
46766;DHT22;32527;51.986;5.842;2022-11-09T09:59:44;13.70;99.90
46766;DHT22;32527;51.986;5.842;2022-11-09T10:02:25;13.80;99.90
46766;DHT22;32527;51.986;5.842;2022-11-09T10:04:52;13.70;99.90
46766;DHT22;32527;51.986;5.842;2022-11-09T10:07:38;13.50;99.90
46766;DHT22;32527;51.986;5.842;2022-11-09T10:13:39;13.60;99.90
46766;DHT22;32527;51.986;5.842;2022-11-09T10:26:40;14.30;99.90
46766;DHT22;32527;51.986;5.842;2022-11-09T10:29:20;14.10;99.90
46766;DHT22;32527;51.986;5.842;2022-11-09T10:31:48;14.40;99.90
46766;DHT22;32527;51.986;5.842;2022-11-09T10:34:20;14.00;99.90
46766;DHT22;32527;51.986;5.842;2022-11-09T10:39:20;14.60;99.90
46766;DHT22;32527;51.986;5.842;2022-11-09T10:42:09;14.00;99.90
46766;DHT22;32527;51.986;5.842;2022-11-09T10:47:49;14.50;99.90
46766;DHT22;32527;51.986;5.842;2022-11-09T10:53:32;14.50;99.90
46766;DHT22;32527;51.986;5.842;2022-11-09T10:56:18;14.40;99.90
46766;DHT22;32527;51.986;5.842;2022-11-09T11:01:47;14.80;99.90
46766;DHT22;32527;51.986;5.842;2022-11-09T11:04:31;14.70;99.90
46766;DHT22;32527;51.986;5.842;2022-11-09T11:07:19;14.00;99.90
46766;DHT22;32527;51.986;5.842;2022-11-09T11:18:35;13.50;99.90
46766;DHT22;32527;51.986;5.842;2022-11-09T11:21:21;14.20;99.90
46766;DHT22;32527;51.986;5.842;2022-11-09T11:24:13;14.10;99.90
46766;DHT22;32527;51.986;5.842;2022-11-09T11:27:05;14.00;99.90
46766;DHT22;32527;51.986;5.842;2022-11-09T11:32:45;14.00;99.90
46766;DHT22;32527;51.986;5.842;2022-11-09T11:35:48;13.80;99.90
46766;DHT22;32527;51.986;5.842;2022-11-09T11:38:40;14.80;99.90
46766;DHT22;32527;51.986;5.842;2022-11-09T11:45:02;14.00;99.90
46766;DHT22;32527;51.986;5.842;2022-11-09T11:48:14;14.90;99.90
46766;DHT22;32527;51.986;5.842;2022-11-09T11:51:09;14.90;99.90
46766;DHT22;32527;51.986;5.842;2022-11-09T11:54:04;14.80;99.90
46766;DHT22;32527;51.986;5.842;2022-11-09T12:00:08;14.80;99.90
46766;DHT22;32527;51.986;5.842;2022-11-09T12:03:24;14.90;99.90
46766;DHT22;32527;51.986;5.842;2022-11-09T12:22:06;14.70;99.90
46766;DHT22;32527;51.986;5.842;2022-11-09T12:37:11;13.90;99.90
46766;DHT22;32527;51.986;5.842;2022-11-09T12:40:14;16.00;99.90
46766;DHT22;32527;51.986;5.842;2022-11-09T12:43:22;14.30;99.90
46766;DHT22;32527;51.986;5.842;2022-11-09T12:46:09;14.20;99.90
46766;DHT22;32527;51.986;5.842;2022-11-09T12:48:55;14.30;99.90
46766;DHT22;32527;51.986;5.842;2022-11-09T12:54:27;14.30;99.90
46766;DHT22;32527;51.986;5.842;2022-11-09T12:57:16;14.40;99.90
46766;DHT22;32527;51.986;5.842;2022-11-09T13:00:04;14.40;99.90
46766;DHT22;32527;51.986;5.842;2022-11-09T13:02:55;14.20;99.90
46766;DHT22;32527;51.986;5.842;2022-11-09T13:08:29;14.60;99.90
46766;DHT22;32527;51.986;5.842;2022-11-09T13:11:20;14.00;99.90
46766;DHT22;32527;51.986;5.842;2022-11-09T13:20:44;14.60;99.90
46766;DHT22;32527;51.986;5.842;2022-11-09T13:23:37;14.60;99.90
46766;DHT22;32527;51.986;5.842;2022-11-09T13:35:00;14.20;99.90
46766;DHT22;32527;51.986;5.842;2022-11-09T13:37:46;14.30;99.90
46766;DHT22;32527;51.986;5.842;2022-11-09T13:46:25;14.10;99.90
46766;DHT22;32527;51.986;5.842;2022-11-09T13:49:41;14.00;99.90
46766;DHT22;32527;51.986;5.842;2022-11-09T13:52:50;14.90;99.90
46766;DHT22;32527;51.986;5.842;2022-11-09T13:55:37;14.50;99.90
46766;DHT22;32527;51.986;5.842;2022-11-09T13:58:36;14.20;99.90
46766;DHT22;32527;51.986;5.842;2022-11-09T14:01:31;14.80;99.90
46766;DHT22;32527;51.986;5.842;2022-11-09T14:04:30;14.00;99.90
46766;DHT22;32527;51.986;5.842;2022-11-09T14:07:30;14.50;99.90
46766;DHT22;32527;51.986;5.842;2022-11-09T14:22:46;14.10;99.90
46766;DHT22;32527;51.986;5.842;2022-11-09T14:25:34;13.90;99.90
46766;DHT22;32527;51.986;5.842;2022-11-09T14:28:27;14.30;99.90
46766;DHT22;32527;51.986;5.842;2022-11-09T14:31:29;14.00;99.90
46766;DHT22;32527;51.986;5.842;2022-11-09T14:34:15;12.10;99.90
46766;DHT22;32527;51.986;5.842;2022-11-09T14:37:00;14.20;99.90
46766;DHT22;32527;51.986;5.842;2022-11-09T14:39:49;13.80;99.90
46766;DHT22;32527;51.986;5.842;2022-11-09T14:42:34;14.60;99.90
46766;DHT22;32527;51.986;5.842;2022-11-09T14:45:18;14.20;99.90
46766;DHT22;32527;51.986;5.842;2022-11-09T14:48:03;13.80;99.90
46766;DHT22;32527;51.986;5.842;2022-11-09T14:50:50;13.40;99.90
46766;DHT22;32527;51.986;5.842;2022-11-09T14:53:36;13.70;99.90
46766;DHT22;32527;51.986;5.842;2022-11-09T14:56:21;14.00;99.90
46766;DHT22;32527;51.986;5.842;2022-11-09T14:59:07;13.70;99.90
46766;DHT22;32527;51.986;5.842;2022-11-09T15:02:18;13.30;99.90
46766;DHT22;32527;51.986;5.842;2022-11-09T15:05:05;13.80;99.90
46766;DHT22;32527;51.986;5.842;2022-11-09T15:07:50;13.50;99.90
46766;DHT22;32527;51.986;5.842;2022-11-09T15:10:34;13.30;99.90
46766;DHT22;32527;51.986;5.842;2022-11-09T15:16:21;13.50;99.90
46766;DHT22;32527;51.986;5.842;2022-11-09T15:21:50;13.90;99.90
46766;DHT22;32527;51.986;5.842;2022-11-09T15:24:47;13.00;99.90
46766;DHT22;32527;51.986;5.842;2022-11-09T15:27:34;13.40;99.90
46766;DHT22;32527;51.986;5.842;2022-11-09T15:33:27;13.00;99.90
46766;DHT22;32527;51.986;5.842;2022-11-09T15:36:26;13.40;99.90
46766;DHT22;32527;51.986;5.842;2022-11-09T15:39:15;13.50;99.90
46766;DHT22;32527;51.986;5.842;2022-11-09T15:41:59;13.50;99.90
46766;DHT22;32527;51.986;5.842;2022-11-09T15:44:44;13.10;99.90
46766;DHT22;32527;51.986;5.842;2022-11-09T15:47:36;13.50;99.90
46766;DHT22;32527;51.986;5.842;2022-11-09T15:50:26;12.90;99.90
46766;DHT22;32527;51.986;5.842;2022-11-09T15:53:12;12.80;99.90
46766;DHT22;32527;51.986;5.842;2022-11-09T15:55:56;13.00;99.90
46766;DHT22;32527;51.986;5.842;2022-11-09T15:58:41;12.70;99.90
46766;DHT22;32527;51.986;5.842;2022-11-09T16:04:10;13.10;99.90
46766;DHT22;32527;51.986;5.842;2022-11-09T16:06:54;12.90;99.90
46766;DHT22;32527;51.986;5.842;2022-11-09T16:09:39;13.10;99.90
46766;DHT22;32527;51.986;5.842;2022-11-09T16:12:24;12.80;99.90
46766;DHT22;32527;51.986;5.842;2022-11-09T16:15:09;12.40;99.90
46766;DHT22;32527;51.986;5.842;2022-11-09T16:17:53;12.50;99.90
46766;DHT22;32527;51.986;5.842;2022-11-09T16:20:38;13.00;99.90
46766;DHT22;32527;51.986;5.842;2022-11-09T16:23:23;12.60;99.90
46766;DHT22;32527;51.986;5.842;2022-11-09T16:26:13;12.90;99.90
46766;DHT22;32527;51.986;5.842;2022-11-09T16:28:58;13.00;99.90
46766;DHT22;32527;51.986;5.842;2022-11-09T16:31:43;13.20;99.90
46766;DHT22;32527;51.986;5.842;2022-11-09T16:34:27;13.10;99.90
46766;DHT22;32527;51.986;5.842;2022-11-09T16:37:11;12.70;99.90
46766;DHT22;32527;51.986;5.842;2022-11-09T16:39:57;12.20;99.90
46766;DHT22;32527;51.986;5.842;2022-11-09T16:42:41;12.50;99.90
46766;DHT22;32527;51.986;5.842;2022-11-09T16:45:26;12.20;99.90
46766;DHT22;32527;51.986;5.842;2022-11-09T16:48:11;11.50;99.90
46766;DHT22;32527;51.986;5.842;2022-11-09T16:56:26;11.60;99.90
46766;DHT22;32527;51.986;5.842;2022-11-09T16:59:10;11.30;99.90
46766;DHT22;32527;51.986;5.842;2022-11-09T17:01:56;11.40;99.90
46766;DHT22;32527;51.986;5.842;2022-11-09T17:04:40;11.50;99.90
46766;DHT22;32527;51.986;5.842;2022-11-09T17:07:25;11.00;99.90
46766;DHT22;32527;51.986;5.842;2022-11-09T17:10:09;11.30;99.90
46766;DHT22;32527;51.986;5.842;2022-11-09T17:15:48;11.40;99.90
46766;DHT22;32527;51.986;5.842;2022-11-09T17:18:33;11.00;99.90
46766;DHT22;32527;51.986;5.842;2022-11-09T17:21:17;11.20;99.90
46766;DHT22;32527;51.986;5.842;2022-11-09T17:24:01;11.20;99.90
46766;DHT22;32527;51.986;5.842;2022-11-09T17:26:47;11.40;99.90
46766;DHT22;32527;51.986;5.842;2022-11-09T17:32:15;10.90;99.90
46766;DHT22;32527;51.986;5.842;2022-11-09T17:37:44;11.20;99.90
46766;DHT22;32527;51.986;5.842;2022-11-09T17:40:28;10.70;99.90
46766;DHT22;32527;51.986;5.842;2022-11-09T17:43:13;11.20;99.90
46766;DHT22;32527;51.986;5.842;2022-11-09T17:46:02;10.50;99.90
46766;DHT22;32527;51.986;5.842;2022-11-09T17:48:48;10.70;99.90
46766;DHT22;32527;51.986;5.842;2022-11-09T17:51:32;10.40;99.90
46766;DHT22;32527;51.986;5.842;2022-11-09T17:57:01;11.20;99.90
46766;DHT22;32527;51.986;5.842;2022-11-09T17:59:46;11.00;99.90
46766;DHT22;32527;51.986;5.842;2022-11-09T18:05:15;10.70;99.90
46766;DHT22;32527;51.986;5.842;2022-11-09T18:08:00;10.90;99.90
46766;DHT22;32527;51.986;5.842;2022-11-09T18:10:44;10.70;99.90
46766;DHT22;32527;51.986;5.842;2022-11-09T18:13:28;10.90;99.90
46766;DHT22;32527;51.986;5.842;2022-11-09T18:16:15;11.40;99.90
46766;DHT22;32527;51.986;5.842;2022-11-09T18:19:00;11.00;99.90
46766;DHT22;32527;51.986;5.842;2022-11-09T18:21:45;10.90;99.90
46766;DHT22;32527;51.986;5.842;2022-11-09T18:24:30;11.60;99.90
46766;DHT22;32527;51.986;5.842;2022-11-09T18:30:01;11.30;99.90
46766;DHT22;32527;51.986;5.842;2022-11-09T18:32:46;10.90;99.90
46766;DHT22;32527;51.986;5.842;2022-11-09T18:38:15;11.40;99.90
46766;DHT22;32527;51.986;5.842;2022-11-09T18:41:20;11.10;99.90
46766;DHT22;32527;51.986;5.842;2022-11-09T18:44:05;11.00;99.90
46766;DHT22;32527;51.986;5.842;2022-11-09T18:46:49;11.40;99.90
46766;DHT22;32527;51.986;5.842;2022-11-09T18:49:34;11.00;99.90
46766;DHT22;32527;51.986;5.842;2022-11-09T18:55:03;11.30;99.90
46766;DHT22;32527;51.986;5.842;2022-11-09T18:57:48;10.80;99.90
46766;DHT22;32527;51.986;5.842;2022-11-09T19:00:32;11.00;99.90
46766;DHT22;32527;51.986;5.842;2022-11-09T19:03:16;11.00;99.90
46766;DHT22;32527;51.986;5.842;2022-11-09T19:06:05;10.70;99.90
46766;DHT22;32527;51.986;5.842;2022-11-09T19:08:50;11.50;99.90
46766;DHT22;32527;51.986;5.842;2022-11-09T19:11:54;10.90;99.90
46766;DHT22;32527;51.986;5.842;2022-11-09T19:17:23;11.40;99.90
46766;DHT22;32527;51.986;5.842;2022-11-09T19:20:07;11.20;99.90
46766;DHT22;32527;51.986;5.842;2022-11-09T19:25:36;11.20;99.90
46766;DHT22;32527;51.986;5.842;2022-11-09T19:28:20;11.10;99.90
46766;DHT22;32527;51.986;5.842;2022-11-09T19:33:50;10.50;99.90
46766;DHT22;32527;51.986;5.842;2022-11-09T19:36:34;10.60;99.90
46766;DHT22;32527;51.986;5.842;2022-11-09T19:39:18;10.70;99.90
46766;DHT22;32527;51.986;5.842;2022-11-09T19:42:03;10.50;99.90
46766;DHT22;32527;51.986;5.842;2022-11-09T19:44:47;10.50;99.90
46766;DHT22;32527;51.986;5.842;2022-11-09T19:47:31;10.80;99.90
46766;DHT22;32527;51.986;5.842;2022-11-09T19:50:15;10.70;99.90
46766;DHT22;32527;51.986;5.842;2022-11-09T19:52:59;11.00;99.90
46766;DHT22;32527;51.986;5.842;2022-11-09T19:55:44;10.50;99.90
46766;DHT22;32527;51.986;5.842;2022-11-09T19:58:28;11.00;99.90
46766;DHT22;32527;51.986;5.842;2022-11-09T20:03:58;10.70;99.90
46766;DHT22;32527;51.986;5.842;2022-11-09T20:09:30;10.60;99.90
46766;DHT22;32527;51.986;5.842;2022-11-09T20:20:48;10.40;99.90
46766;DHT22;32527;51.986;5.842;2022-11-09T20:23:32;10.50;99.90
46766;DHT22;32527;51.986;5.842;2022-11-09T20:26:16;10.20;99.90
46766;DHT22;32527;51.986;5.842;2022-11-09T20:29:00;10.50;99.90
46766;DHT22;32527;51.986;5.842;2022-11-09T20:37:15;10.00;99.90
46766;DHT22;32527;51.986;5.842;2022-11-09T20:42:44;10.80;99.90
46766;DHT22;32527;51.986;5.842;2022-11-09T20:45:27;10.10;99.90
46766;DHT22;32527;51.986;5.842;2022-11-09T20:48:12;9.60;99.90
46766;DHT22;32527;51.986;5.842;2022-11-09T20:51:01;10.00;99.90
46766;DHT22;32527;51.986;5.842;2022-11-09T20:53:46;9.80;99.90
46766;DHT22;32527;51.986;5.842;2022-11-09T20:56:31;9.80;99.90
46766;DHT22;32527;51.986;5.842;2022-11-09T20:59:15;9.90;99.90
46766;DHT22;32527;51.986;5.842;2022-11-09T21:01:59;9.50;99.90
46766;DHT22;32527;51.986;5.842;2022-11-09T21:04:43;10.00;99.90
46766;DHT22;32527;51.986;5.842;2022-11-09T21:12:57;9.70;99.90
46766;DHT22;32527;51.986;5.842;2022-11-09T21:21:15;9.70;99.90
46766;DHT22;32527;51.986;5.842;2022-11-09T21:27:04;10.00;99.90
46766;DHT22;32527;51.986;5.842;2022-11-09T21:30:20;9.60;99.90
46766;DHT22;32527;51.986;5.842;2022-11-09T21:33:04;9.80;99.90
46766;DHT22;32527;51.986;5.842;2022-11-09T21:35:48;9.60;99.90
46766;DHT22;32527;51.986;5.842;2022-11-09T21:49:50;9.50;99.90
46766;DHT22;32527;51.986;5.842;2022-11-09T21:52:34;9.50;99.90
46766;DHT22;32527;51.986;5.842;2022-11-09T21:55:18;9.10;99.90
46766;DHT22;32527;51.986;5.842;2022-11-09T21:58:04;9.40;99.90
46766;DHT22;32527;51.986;5.842;2022-11-09T22:03:33;9.70;99.90
46766;DHT22;32527;51.986;5.842;2022-11-09T22:09:04;9.90;99.90
46766;DHT22;32527;51.986;5.842;2022-11-09T22:11:49;9.90;99.90
46766;DHT22;32527;51.986;5.842;2022-11-09T22:17:55;9.80;99.90
46766;DHT22;32527;51.986;5.842;2022-11-09T22:20:39;9.90;99.90
46766;DHT22;32527;51.986;5.842;2022-11-09T22:23:39;9.90;99.90
46766;DHT22;32527;51.986;5.842;2022-11-09T22:26:24;9.50;99.90
46766;DHT22;32527;51.986;5.842;2022-11-09T22:29:08;10.10;99.90
46766;DHT22;32527;51.986;5.842;2022-11-09T22:31:52;9.80;99.90
46766;DHT22;32527;51.986;5.842;2022-11-09T22:37:21;9.70;99.90
46766;DHT22;32527;51.986;5.842;2022-11-09T22:40:06;9.90;99.90
46766;DHT22;32527;51.986;5.842;2022-11-09T22:42:57;10.00;99.90
46766;DHT22;32527;51.986;5.842;2022-11-09T22:45:41;10.20;99.90
46766;DHT22;32527;51.986;5.842;2022-11-09T22:48:25;9.80;99.90
46766;DHT22;32527;51.986;5.842;2022-11-09T22:51:14;9.50;99.90
46766;DHT22;32527;51.986;5.842;2022-11-09T23:02:20;9.70;99.90
46766;DHT22;32527;51.986;5.842;2022-11-09T23:05:04;9.40;99.90
46766;DHT22;32527;51.986;5.842;2022-11-09T23:07:48;9.90;99.90
46766;DHT22;32527;51.986;5.842;2022-11-09T23:10:32;9.90;99.90
46766;DHT22;32527;51.986;5.842;2022-11-09T23:16:07;9.50;99.90
46766;DHT22;32527;51.986;5.842;2022-11-09T23:21:37;9.30;99.90
46766;DHT22;32527;51.986;5.842;2022-11-09T23:27:24;9.90;99.90
46766;DHT22;32527;51.986;5.842;2022-11-09T23:30:08;9.40;99.90
46766;DHT22;32527;51.986;5.842;2022-11-09T23:32:53;10.00;99.90
46766;DHT22;32527;51.986;5.842;2022-11-09T23:35:40;9.50;99.90
46766;DHT22;32527;51.986;5.842;2022-11-09T23:41:10;9.50;99.90
46766;DHT22;32527;51.986;5.842;2022-11-09T23:46:39;9.20;99.90
46766;DHT22;32527;51.986;5.842;2022-11-09T23:49:23;9.20;99.90
46766;DHT22;32527;51.986;5.842;2022-11-09T23:52:09;9.30;99.90
46766;DHT22;32527;51.986;5.842;2022-11-09T23:54:53;9.10;99.90
46766;DHT22;32527;51.986;5.842;2022-11-09T23:57:37;9.30;99.90
